sensor_id;sensor_type;location;lat;lon;timestamp;P1;durP1;ratioP1;P2;durP2;ratioP2
8640;SDS011;4358;42.100;25.222;2022-07-06T00:02:22;5.03;;;3.73;;
8640;SDS011;4358;42.100;25.222;2022-07-06T00:04:48;6.37;;;4.27;;
8640;SDS011;4358;42.100;25.222;2022-07-06T00:07:15;9.30;;;4.57;;
8640;SDS011;4358;42.100;25.222;2022-07-06T00:09:44;6.03;;;4.40;;
8640;SDS011;4358;42.100;25.222;2022-07-06T00:12:10;6.40;;;4.10;;
8640;SDS011;4358;42.100;25.222;2022-07-06T00:14:37;5.87;;;3.97;;
8640;SDS011;4358;42.100;25.222;2022-07-06T00:17:04;5.63;;;3.90;;
8640;SDS011;4358;42.100;25.222;2022-07-06T00:19:31;8.10;;;3.87;;
8640;SDS011;4358;42.100;25.222;2022-07-06T00:21:58;5.33;;;3.53;;
8640;SDS011;4358;42.100;25.222;2022-07-06T00:24:25;6.10;;;4.30;;
8640;SDS011;4358;42.100;25.222;2022-07-06T00:26:53;7.43;;;4.03;;
8640;SDS011;4358;42.100;25.222;2022-07-06T00:29:21;9.07;;;4.10;;
8640;SDS011;4358;42.100;25.222;2022-07-06T00:31:48;5.33;;;3.87;;
8640;SDS011;4358;42.100;25.222;2022-07-06T00:34:15;5.83;;;3.60;;
8640;SDS011;4358;42.100;25.222;2022-07-06T00:36:41;9.00;;;3.90;;
8640;SDS011;4358;42.100;25.222;2022-07-06T00:39:08;3.93;;;3.63;;
8640;SDS011;4358;42.100;25.222;2022-07-06T00:41:35;5.67;;;3.63;;
8640;SDS011;4358;42.100;25.222;2022-07-06T00:44:06;6.53;;;3.70;;
8640;SDS011;4358;42.100;25.222;2022-07-06T00:46:34;4.23;;;3.70;;
8640;SDS011;4358;42.100;25.222;2022-07-06T00:49:02;5.10;;;3.83;;
8640;SDS011;4358;42.100;25.222;2022-07-06T00:51:29;5.13;;;3.97;;
8640;SDS011;4358;42.100;25.222;2022-07-06T00:53:58;5.47;;;4.97;;
8640;SDS011;4358;42.100;25.222;2022-07-06T00:56:25;13.20;;;11.97;;
8640;SDS011;4358;42.100;25.222;2022-07-06T00:58:53;13.10;;;11.70;;
8640;SDS011;4358;42.100;25.222;2022-07-06T01:01:21;8.00;;;5.73;;
8640;SDS011;4358;42.100;25.222;2022-07-06T01:03:48;8.87;;;6.50;;
8640;SDS011;4358;42.100;25.222;2022-07-06T01:06:15;7.83;;;4.73;;
8640;SDS011;4358;42.100;25.222;2022-07-06T01:08:42;4.73;;;3.60;;
8640;SDS011;4358;42.100;25.222;2022-07-06T01:11:09;5.27;;;3.90;;
8640;SDS011;4358;42.100;25.222;2022-07-06T01:13:37;6.10;;;4.10;;
8640;SDS011;4358;42.100;25.222;2022-07-06T01:16:06;5.40;;;3.93;;
8640;SDS011;4358;42.100;25.222;2022-07-06T01:18:35;4.90;;;4.07;;
8640;SDS011;4358;42.100;25.222;2022-07-06T01:21:10;5.23;;;4.10;;
8640;SDS011;4358;42.100;25.222;2022-07-06T01:23:39;5.07;;;4.10;;
8640;SDS011;4358;42.100;25.222;2022-07-06T01:26:08;6.17;;;4.13;;
8640;SDS011;4358;42.100;25.222;2022-07-06T01:28:36;7.97;;;6.60;;
8640;SDS011;4358;42.100;25.222;2022-07-06T01:31:03;14.63;;;12.10;;
8640;SDS011;4358;42.100;25.222;2022-07-06T01:33:30;13.10;;;11.87;;
8640;SDS011;4358;42.100;25.222;2022-07-06T01:35:57;16.07;;;14.50;;
8640;SDS011;4358;42.100;25.222;2022-07-06T01:38:26;10.77;;;9.27;;
8640;SDS011;4358;42.100;25.222;2022-07-06T01:40:52;8.00;;;7.10;;
8640;SDS011;4358;42.100;25.222;2022-07-06T01:43:19;7.73;;;4.77;;
8640;SDS011;4358;42.100;25.222;2022-07-06T01:45:46;8.23;;;4.80;;
8640;SDS011;4358;42.100;25.222;2022-07-06T01:48:13;7.47;;;5.13;;
8640;SDS011;4358;42.100;25.222;2022-07-06T01:50:40;5.00;;;3.77;;
8640;SDS011;4358;42.100;25.222;2022-07-06T01:53:07;11.43;;;4.10;;
8640;SDS011;4358;42.100;25.222;2022-07-06T01:55:35;5.63;;;4.00;;
8640;SDS011;4358;42.100;25.222;2022-07-06T01:58:02;5.17;;;4.40;;
8640;SDS011;4358;42.100;25.222;2022-07-06T02:00:29;5.00;;;3.73;;
8640;SDS011;4358;42.100;25.222;2022-07-06T02:02:55;7.00;;;4.00;;
8640;SDS011;4358;42.100;25.222;2022-07-06T02:05:22;5.43;;;3.53;;
8640;SDS011;4358;42.100;25.222;2022-07-06T02:07:49;6.30;;;3.97;;
8640;SDS011;4358;42.100;25.222;2022-07-06T02:10:16;5.80;;;3.93;;
8640;SDS011;4358;42.100;25.222;2022-07-06T02:12:44;4.77;;;4.00;;
8640;SDS011;4358;42.100;25.222;2022-07-06T02:15:11;7.67;;;4.30;;
8640;SDS011;4358;42.100;25.222;2022-07-06T02:17:38;5.57;;;4.40;;
8640;SDS011;4358;42.100;25.222;2022-07-06T02:20:05;7.83;;;4.10;;
8640;SDS011;4358;42.100;25.222;2022-07-06T02:22:33;5.27;;;3.90;;
8640;SDS011;4358;42.100;25.222;2022-07-06T02:25:00;7.13;;;3.43;;
8640;SDS011;4358;42.100;25.222;2022-07-06T02:27:27;4.57;;;3.90;;
8640;SDS011;4358;42.100;25.222;2022-07-06T02:29:55;6.70;;;3.77;;
8640;SDS011;4358;42.100;25.222;2022-07-06T02:32:21;5.00;;;4.17;;
8640;SDS011;4358;42.100;25.222;2022-07-06T02:34:48;8.73;;;4.20;;
8640;SDS011;4358;42.100;25.222;2022-07-06T02:37:15;4.00;;;3.63;;
8640;SDS011;4358;42.100;25.222;2022-07-06T02:39:42;4.40;;;4.00;;
8640;SDS011;4358;42.100;25.222;2022-07-06T02:42:09;4.50;;;4.00;;
8640;SDS011;4358;42.100;25.222;2022-07-06T02:44:36;4.17;;;3.83;;
8640;SDS011;4358;42.100;25.222;2022-07-06T02:47:05;6.30;;;3.80;;
8640;SDS011;4358;42.100;25.222;2022-07-06T02:49:32;6.03;;;3.80;;
8640;SDS011;4358;42.100;25.222;2022-07-06T02:51:59;6.53;;;3.80;;
8640;SDS011;4358;42.100;25.222;2022-07-06T02:54:25;6.33;;;3.90;;
8640;SDS011;4358;42.100;25.222;2022-07-06T02:56:52;5.00;;;4.20;;
8640;SDS011;4358;42.100;25.222;2022-07-06T02:59:19;5.37;;;4.60;;
8640;SDS011;4358;42.100;25.222;2022-07-06T03:01:46;6.43;;;3.93;;
8640;SDS011;4358;42.100;25.222;2022-07-06T03:04:14;5.10;;;4.23;;
8640;SDS011;4358;42.100;25.222;2022-07-06T03:06:41;10.53;;;5.50;;
8640;SDS011;4358;42.100;25.222;2022-07-06T03:09:08;8.33;;;5.40;;
8640;SDS011;4358;42.100;25.222;2022-07-06T03:11:35;7.87;;;4.43;;
8640;SDS011;4358;42.100;25.222;2022-07-06T03:14:02;7.17;;;5.50;;
8640;SDS011;4358;42.100;25.222;2022-07-06T03:16:29;8.33;;;4.83;;
8640;SDS011;4358;42.100;25.222;2022-07-06T03:18:56;8.10;;;4.60;;
8640;SDS011;4358;42.100;25.222;2022-07-06T03:21:24;5.23;;;4.20;;
8640;SDS011;4358;42.100;25.222;2022-07-06T03:23:51;8.13;;;4.70;;
8640;SDS011;4358;42.100;25.222;2022-07-06T03:26:19;5.10;;;4.60;;
8640;SDS011;4358;42.100;25.222;2022-07-06T03:28:45;8.77;;;4.07;;
8640;SDS011;4358;42.100;25.222;2022-07-06T03:31:12;8.13;;;4.57;;
8640;SDS011;4358;42.100;25.222;2022-07-06T03:33:39;9.60;;;8.60;;
8640;SDS011;4358;42.100;25.222;2022-07-06T03:36:06;11.23;;;10.13;;
8640;SDS011;4358;42.100;25.222;2022-07-06T03:38:35;7.03;;;6.33;;
8640;SDS011;4358;42.100;25.222;2022-07-06T03:41:03;5.17;;;4.60;;
8640;SDS011;4358;42.100;25.222;2022-07-06T03:43:30;7.57;;;4.73;;
8640;SDS011;4358;42.100;25.222;2022-07-06T03:45:56;5.27;;;4.63;;
8640;SDS011;4358;42.100;25.222;2022-07-06T03:48:23;6.53;;;4.90;;
8640;SDS011;4358;42.100;25.222;2022-07-06T03:50:50;7.40;;;4.63;;
8640;SDS011;4358;42.100;25.222;2022-07-06T03:53:17;7.43;;;6.73;;
8640;SDS011;4358;42.100;25.222;2022-07-06T03:55:45;8.23;;;5.50;;
8640;SDS011;4358;42.100;25.222;2022-07-06T03:58:33;8.30;;;4.90;;
8640;SDS011;4358;42.100;25.222;2022-07-06T04:01:00;5.63;;;4.60;;
8640;SDS011;4358;42.100;25.222;2022-07-06T04:03:27;8.37;;;4.60;;
8640;SDS011;4358;42.100;25.222;2022-07-06T04:05:54;5.13;;;4.63;;
8640;SDS011;4358;42.100;25.222;2022-07-06T04:08:21;6.80;;;4.60;;
8640;SDS011;4358;42.100;25.222;2022-07-06T04:10:49;8.80;;;4.90;;
8640;SDS011;4358;42.100;25.222;2022-07-06T04:13:16;6.97;;;5.07;;
8640;SDS011;4358;42.100;25.222;2022-07-06T04:15:42;8.70;;;5.50;;
8640;SDS011;4358;42.100;25.222;2022-07-06T04:18:09;5.43;;;4.87;;
8640;SDS011;4358;42.100;25.222;2022-07-06T04:20:36;6.57;;;4.73;;
8640;SDS011;4358;42.100;25.222;2022-07-06T04:23:03;6.87;;;4.90;;
8640;SDS011;4358;42.100;25.222;2022-07-06T04:25:30;6.53;;;4.80;;
8640;SDS011;4358;42.100;25.222;2022-07-06T04:27:58;5.77;;;4.63;;
8640;SDS011;4358;42.100;25.222;2022-07-06T04:30:25;8.93;;;5.63;;
8640;SDS011;4358;42.100;25.222;2022-07-06T04:32:52;6.13;;;4.90;;
8640;SDS011;4358;42.100;25.222;2022-07-06T04:35:20;7.60;;;5.00;;
8640;SDS011;4358;42.100;25.222;2022-07-06T04:37:47;5.83;;;4.90;;
8640;SDS011;4358;42.100;25.222;2022-07-06T04:40:14;7.83;;;4.60;;
8640;SDS011;4358;42.100;25.222;2022-07-06T04:42:41;9.20;;;5.23;;
8640;SDS011;4358;42.100;25.222;2022-07-06T04:45:10;9.60;;;4.53;;
8640;SDS011;4358;42.100;25.222;2022-07-06T04:47:37;6.83;;;5.10;;
8640;SDS011;4358;42.100;25.222;2022-07-06T04:50:04;9.00;;;4.97;;
8640;SDS011;4358;42.100;25.222;2022-07-06T04:52:32;5.77;;;5.17;;
8640;SDS011;4358;42.100;25.222;2022-07-06T04:54:59;9.77;;;5.50;;
8640;SDS011;4358;42.100;25.222;2022-07-06T04:57:26;9.13;;;5.03;;
8640;SDS011;4358;42.100;25.222;2022-07-06T04:59:54;7.10;;;5.73;;
8640;SDS011;4358;42.100;25.222;2022-07-06T05:02:23;6.33;;;5.30;;
8640;SDS011;4358;42.100;25.222;2022-07-06T05:04:50;6.47;;;5.40;;
8640;SDS011;4358;42.100;25.222;2022-07-06T05:07:18;9.17;;;6.27;;
8640;SDS011;4358;42.100;25.222;2022-07-06T05:09:45;6.17;;;5.50;;
8640;SDS011;4358;42.100;25.222;2022-07-06T05:12:12;7.20;;;5.20;;
8640;SDS011;4358;42.100;25.222;2022-07-06T05:14:40;7.83;;;5.60;;
8640;SDS011;4358;42.100;25.222;2022-07-06T05:17:07;15.80;;;6.13;;
8640;SDS011;4358;42.100;25.222;2022-07-06T05:19:35;7.63;;;5.63;;
8640;SDS011;4358;42.100;25.222;2022-07-06T05:22:02;11.73;;;8.50;;
8640;SDS011;4358;42.100;25.222;2022-07-06T05:24:29;9.50;;;5.47;;
8640;SDS011;4358;42.100;25.222;2022-07-06T05:26:56;12.10;;;5.83;;
8640;SDS011;4358;42.100;25.222;2022-07-06T05:29:23;10.33;;;6.07;;
8640;SDS011;4358;42.100;25.222;2022-07-06T05:31:50;19.13;;;11.40;;
8640;SDS011;4358;42.100;25.222;2022-07-06T05:34:16;9.27;;;6.30;;
8640;SDS011;4358;42.100;25.222;2022-07-06T05:36:45;10.23;;;5.60;;
8640;SDS011;4358;42.100;25.222;2022-07-06T05:39:11;8.67;;;7.73;;
8640;SDS011;4358;42.100;25.222;2022-07-06T05:41:38;6.57;;;5.03;;
8640;SDS011;4358;42.100;25.222;2022-07-06T05:44:05;6.67;;;5.30;;
8640;SDS011;4358;42.100;25.222;2022-07-06T05:46:32;7.67;;;4.87;;
8640;SDS011;4358;42.100;25.222;2022-07-06T05:48:59;10.40;;;5.40;;
8640;SDS011;4358;42.100;25.222;2022-07-06T05:51:44;7.83;;;5.27;;
8640;SDS011;4358;42.100;25.222;2022-07-06T05:54:11;9.77;;;7.97;;
8640;SDS011;4358;42.100;25.222;2022-07-06T05:56:38;6.67;;;5.03;;
8640;SDS011;4358;42.100;25.222;2022-07-06T05:59:05;5.47;;;4.87;;
8640;SDS011;4358;42.100;25.222;2022-07-06T06:01:32;9.97;;;8.27;;
8640;SDS011;4358;42.100;25.222;2022-07-06T06:03:58;10.10;;;9.10;;
8640;SDS011;4358;42.100;25.222;2022-07-06T06:06:25;9.73;;;5.30;;
8640;SDS011;4358;42.100;25.222;2022-07-06T06:08:54;11.03;;;7.27;;
8640;SDS011;4358;42.100;25.222;2022-07-06T06:11:20;9.60;;;6.23;;
8640;SDS011;4358;42.100;25.222;2022-07-06T06:13:47;11.20;;;5.20;;
8640;SDS011;4358;42.100;25.222;2022-07-06T06:16:14;9.03;;;5.37;;
8640;SDS011;4358;42.100;25.222;2022-07-06T06:18:41;5.50;;;5.00;;
8640;SDS011;4358;42.100;25.222;2022-07-06T06:21:09;8.70;;;6.77;;
8640;SDS011;4358;42.100;25.222;2022-07-06T06:23:36;7.90;;;6.17;;
8640;SDS011;4358;42.100;25.222;2022-07-06T06:26:05;9.23;;;5.80;;
8640;SDS011;4358;42.100;25.222;2022-07-06T06:28:32;7.80;;;6.30;;
8640;SDS011;4358;42.100;25.222;2022-07-06T06:30:58;13.60;;;6.20;;
8640;SDS011;4358;42.100;25.222;2022-07-06T06:33:25;6.23;;;5.63;;
8640;SDS011;4358;42.100;25.222;2022-07-06T06:35:52;8.47;;;5.77;;
8640;SDS011;4358;42.100;25.222;2022-07-06T06:38:20;7.00;;;5.70;;
8640;SDS011;4358;42.100;25.222;2022-07-06T06:40:51;8.63;;;5.60;;
8640;SDS011;4358;42.100;25.222;2022-07-06T06:43:20;10.40;;;5.67;;
8640;SDS011;4358;42.100;25.222;2022-07-06T06:45:47;6.30;;;5.70;;
8640;SDS011;4358;42.100;25.222;2022-07-06T06:48:14;9.27;;;5.80;;
8640;SDS011;4358;42.100;25.222;2022-07-06T06:50:42;11.37;;;5.63;;
8640;SDS011;4358;42.100;25.222;2022-07-06T06:53:09;6.20;;;5.60;;
8640;SDS011;4358;42.100;25.222;2022-07-06T06:55:36;7.47;;;5.67;;
8640;SDS011;4358;42.100;25.222;2022-07-06T06:58:03;6.57;;;5.97;;
8640;SDS011;4358;42.100;25.222;2022-07-06T07:00:31;8.20;;;5.40;;
8640;SDS011;4358;42.100;25.222;2022-07-06T07:02:58;9.37;;;5.63;;
8640;SDS011;4358;42.100;25.222;2022-07-06T07:05:25;6.93;;;6.13;;
8640;SDS011;4358;42.100;25.222;2022-07-06T07:07:52;7.27;;;5.67;;
8640;SDS011;4358;42.100;25.222;2022-07-06T07:10:20;7.87;;;5.70;;
8640;SDS011;4358;42.100;25.222;2022-07-06T07:12:47;8.10;;;5.63;;
8640;SDS011;4358;42.100;25.222;2022-07-06T07:15:15;7.87;;;5.67;;
8640;SDS011;4358;42.100;25.222;2022-07-06T07:17:43;8.07;;;6.00;;
8640;SDS011;4358;42.100;25.222;2022-07-06T07:20:11;7.27;;;5.60;;
8640;SDS011;4358;42.100;25.222;2022-07-06T07:22:38;8.90;;;5.30;;
8640;SDS011;4358;42.100;25.222;2022-07-06T07:25:05;7.77;;;5.37;;
8640;SDS011;4358;42.100;25.222;2022-07-06T07:27:33;8.57;;;5.63;;
8640;SDS011;4358;42.100;25.222;2022-07-06T07:30:00;6.57;;;5.50;;
8640;SDS011;4358;42.100;25.222;2022-07-06T07:32:27;8.07;;;5.00;;
8640;SDS011;4358;42.100;25.222;2022-07-06T07:34:55;6.07;;;5.30;;
8640;SDS011;4358;42.100;25.222;2022-07-06T07:37:22;7.40;;;5.70;;
8640;SDS011;4358;42.100;25.222;2022-07-06T07:39:50;5.67;;;4.83;;
8640;SDS011;4358;42.100;25.222;2022-07-06T07:42:17;8.27;;;5.33;;
8640;SDS011;4358;42.100;25.222;2022-07-06T07:44:44;9.60;;;5.60;;
8640;SDS011;4358;42.100;25.222;2022-07-06T07:47:11;5.90;;;5.40;;
8640;SDS011;4358;42.100;25.222;2022-07-06T07:49:38;7.67;;;5.50;;
8640;SDS011;4358;42.100;25.222;2022-07-06T07:52:07;7.33;;;5.93;;
8640;SDS011;4358;42.100;25.222;2022-07-06T07:54:34;8.63;;;6.13;;
8640;SDS011;4358;42.100;25.222;2022-07-06T07:57:01;8.77;;;6.03;;
8640;SDS011;4358;42.100;25.222;2022-07-06T07:59:28;7.53;;;6.20;;
8640;SDS011;4358;42.100;25.222;2022-07-06T08:01:55;7.27;;;6.17;;
8640;SDS011;4358;42.100;25.222;2022-07-06T08:04:21;7.20;;;6.50;;
8640;SDS011;4358;42.100;25.222;2022-07-06T08:06:48;7.50;;;6.80;;
8640;SDS011;4358;42.100;25.222;2022-07-06T08:09:17;9.93;;;7.03;;
8640;SDS011;4358;42.100;25.222;2022-07-06T08:11:44;7.03;;;6.23;;
8640;SDS011;4358;42.100;25.222;2022-07-06T08:14:11;7.50;;;6.70;;
8640;SDS011;4358;42.100;25.222;2022-07-06T08:16:39;7.53;;;6.43;;
8640;SDS011;4358;42.100;25.222;2022-07-06T08:19:07;7.77;;;6.53;;
8640;SDS011;4358;42.100;25.222;2022-07-06T08:21:34;8.53;;;6.67;;
8640;SDS011;4358;42.100;25.222;2022-07-06T08:24:01;10.37;;;6.57;;
8640;SDS011;4358;42.100;25.222;2022-07-06T08:26:30;9.07;;;6.50;;
8640;SDS011;4358;42.100;25.222;2022-07-06T08:28:56;7.20;;;6.57;;
8640;SDS011;4358;42.100;25.222;2022-07-06T08:31:24;10.63;;;6.83;;
8640;SDS011;4358;42.100;25.222;2022-07-06T08:33:52;7.83;;;6.97;;
8640;SDS011;4358;42.100;25.222;2022-07-06T08:36:19;8.33;;;7.10;;
8640;SDS011;4358;42.100;25.222;2022-07-06T08:38:46;10.07;;;6.50;;
8640;SDS011;4358;42.100;25.222;2022-07-06T08:41:13;11.13;;;7.00;;
8640;SDS011;4358;42.100;25.222;2022-07-06T08:43:43;9.70;;;7.03;;
8640;SDS011;4358;42.100;25.222;2022-07-06T08:46:10;9.53;;;7.13;;
8640;SDS011;4358;42.100;25.222;2022-07-06T08:48:40;7.67;;;6.83;;
8640;SDS011;4358;42.100;25.222;2022-07-06T08:51:07;8.67;;;6.80;;
8640;SDS011;4358;42.100;25.222;2022-07-06T08:53:34;9.00;;;6.83;;
8640;SDS011;4358;42.100;25.222;2022-07-06T08:56:01;11.33;;;6.70;;
8640;SDS011;4358;42.100;25.222;2022-07-06T08:58:28;6.82;;;6.15;;
8640;SDS011;4358;42.100;25.222;2022-07-06T09:00:56;8.73;;;6.63;;
8640;SDS011;4358;42.100;25.222;2022-07-06T09:03:23;7.45;;;6.20;;
8640;SDS011;4358;42.100;25.222;2022-07-06T09:05:50;7.53;;;6.13;;
8640;SDS011;4358;42.100;25.222;2022-07-06T09:08:19;11.18;;;6.30;;
8640;SDS011;4358;42.100;25.222;2022-07-06T09:10:47;7.40;;;6.00;;
8640;SDS011;4358;42.100;25.222;2022-07-06T09:13:15;10.55;;;6.10;;
8640;SDS011;4358;42.100;25.222;2022-07-06T09:15:42;6.93;;;5.70;;
8640;SDS011;4358;42.100;25.222;2022-07-06T09:18:10;8.40;;;6.20;;
8640;SDS011;4358;42.100;25.222;2022-07-06T09:20:37;6.65;;;5.22;;
8640;SDS011;4358;42.100;25.222;2022-07-06T09:23:06;8.85;;;5.75;;
8640;SDS011;4358;42.100;25.222;2022-07-06T09:25:34;5.65;;;5.15;;
8640;SDS011;4358;42.100;25.222;2022-07-06T09:28:02;5.45;;;4.95;;
8640;SDS011;4358;42.100;25.222;2022-07-06T09:30:30;5.60;;;5.10;;
8640;SDS011;4358;42.100;25.222;2022-07-06T09:32:58;5.40;;;4.90;;
8640;SDS011;4358;42.100;25.222;2022-07-06T09:35:26;6.47;;;5.15;;
8640;SDS011;4358;42.100;25.222;2022-07-06T09:38:01;6.32;;;5.75;;
8640;SDS011;4358;42.100;25.222;2022-07-06T09:40:30;6.57;;;5.97;;
8640;SDS011;4358;42.100;25.222;2022-07-06T09:43:07;6.60;;;5.40;;
8640;SDS011;4358;42.100;25.222;2022-07-06T09:45:35;6.05;;;5.65;;
8640;SDS011;4358;42.100;25.222;2022-07-06T09:48:06;6.88;;;5.93;;
8640;SDS011;4358;42.100;25.222;2022-07-06T09:50:39;8.85;;;6.00;;
8640;SDS011;4358;42.100;25.222;2022-07-06T09:53:07;6.05;;;5.55;;
8640;SDS011;4358;42.100;25.222;2022-07-06T09:55:34;5.60;;;5.18;;
8640;SDS011;4358;42.100;25.222;2022-07-06T09:58:01;9.07;;;8.25;;
8640;SDS011;4358;42.100;25.222;2022-07-06T10:00:29;8.93;;;8.23;;
8640;SDS011;4358;42.100;25.222;2022-07-06T10:02:56;14.95;;;8.52;;
8640;SDS011;4358;42.100;25.222;2022-07-06T10:05:23;9.27;;;8.55;;
8640;SDS011;4358;42.100;25.222;2022-07-06T10:07:57;9.35;;;8.55;;
8640;SDS011;4358;42.100;25.222;2022-07-06T10:10:25;10.45;;;8.75;;
8640;SDS011;4358;42.100;25.222;2022-07-06T10:12:54;8.38;;;7.57;;
8640;SDS011;4358;42.100;25.222;2022-07-06T10:15:22;8.63;;;7.80;;
8640;SDS011;4358;42.100;25.222;2022-07-06T10:17:50;7.38;;;6.60;;
8640;SDS011;4358;42.100;25.222;2022-07-06T10:20:17;7.35;;;6.53;;
8640;SDS011;4358;42.100;25.222;2022-07-06T10:22:45;10.20;;;7.90;;
8640;SDS011;4358;42.100;25.222;2022-07-06T10:25:15;9.63;;;7.50;;
8640;SDS011;4358;42.100;25.222;2022-07-06T10:27:42;8.70;;;8.00;;
8640;SDS011;4358;42.100;25.222;2022-07-06T10:30:11;9.30;;;8.55;;
8640;SDS011;4358;42.100;25.222;2022-07-06T10:32:39;9.25;;;8.45;;
8640;SDS011;4358;42.100;25.222;2022-07-06T10:35:07;8.75;;;7.97;;
8640;SDS011;4358;42.100;25.222;2022-07-06T10:37:35;8.88;;;7.95;;
8640;SDS011;4358;42.100;25.222;2022-07-06T10:40:02;10.65;;;8.57;;
8640;SDS011;4358;42.100;25.222;2022-07-06T10:42:49;9.07;;;8.18;;
8640;SDS011;4358;42.100;25.222;2022-07-06T10:45:20;7.90;;;7.20;;
8640;SDS011;4358;42.100;25.222;2022-07-06T10:48:16;10.30;;;7.85;;
8640;SDS011;4358;42.100;25.222;2022-07-06T10:50:46;9.02;;;8.32;;
8640;SDS011;4358;42.100;25.222;2022-07-06T10:53:15;9.52;;;8.50;;
8640;SDS011;4358;42.100;25.222;2022-07-06T10:55:43;9.18;;;8.23;;
8640;SDS011;4358;42.100;25.222;2022-07-06T10:58:14;7.78;;;7.03;;
8640;SDS011;4358;42.100;25.222;2022-07-06T11:00:48;9.07;;;8.25;;
8640;SDS011;4358;42.100;25.222;2022-07-06T11:03:33;9.40;;;8.48;;
8640;SDS011;4358;42.100;25.222;2022-07-06T11:06:02;12.20;;;8.60;;
8640;SDS011;4358;42.100;25.222;2022-07-06T11:08:53;9.00;;;8.02;;
8640;SDS011;4358;42.100;25.222;2022-07-06T11:11:22;10.93;;;8.73;;
8640;SDS011;4358;42.100;25.222;2022-07-06T11:13:53;9.30;;;8.55;;
8640;SDS011;4358;42.100;25.222;2022-07-06T11:16:23;10.10;;;9.13;;
8640;SDS011;4358;42.100;25.222;2022-07-06T11:19:05;9.75;;;8.93;;
8640;SDS011;4358;42.100;25.222;2022-07-06T11:21:37;9.95;;;9.05;;
8640;SDS011;4358;42.100;25.222;2022-07-06T11:24:11;10.07;;;9.18;;
8640;SDS011;4358;42.100;25.222;2022-07-06T11:26:39;10.38;;;9.57;;
8640;SDS011;4358;42.100;25.222;2022-07-06T11:29:10;10.40;;;9.55;;
8640;SDS011;4358;42.100;25.222;2022-07-06T11:31:37;11.23;;;9.82;;
8640;SDS011;4358;42.100;25.222;2022-07-06T11:34:06;10.68;;;9.57;;
8640;SDS011;4358;42.100;25.222;2022-07-06T11:36:34;10.57;;;9.68;;
8640;SDS011;4358;42.100;25.222;2022-07-06T11:39:01;14.45;;;10.77;;
8640;SDS011;4358;42.100;25.222;2022-07-06T11:41:30;10.70;;;9.70;;
8640;SDS011;4358;42.100;25.222;2022-07-06T11:43:58;11.23;;;10.13;;
8640;SDS011;4358;42.100;25.222;2022-07-06T11:46:27;10.90;;;9.98;;
8640;SDS011;4358;42.100;25.222;2022-07-06T11:48:55;10.95;;;10.05;;
8640;SDS011;4358;42.100;25.222;2022-07-06T11:51:23;10.85;;;9.80;;
8640;SDS011;4358;42.100;25.222;2022-07-06T11:53:52;11.23;;;9.68;;
8640;SDS011;4358;42.100;25.222;2022-07-06T11:56:21;11.27;;;10.02;;
8640;SDS011;4358;42.100;25.222;2022-07-06T11:58:51;10.25;;;9.43;;
8640;SDS011;4358;42.100;25.222;2022-07-06T12:01:18;12.88;;;9.77;;
8640;SDS011;4358;42.100;25.222;2022-07-06T12:03:47;11.00;;;9.60;;
8640;SDS011;4358;42.100;25.222;2022-07-06T12:06:15;10.48;;;9.50;;
8640;SDS011;4358;42.100;25.222;2022-07-06T12:08:44;10.80;;;9.48;;
8640;SDS011;4358;42.100;25.222;2022-07-06T12:11:19;11.00;;;9.90;;
8640;SDS011;4358;42.100;25.222;2022-07-06T12:13:47;10.10;;;9.30;;
8640;SDS011;4358;42.100;25.222;2022-07-06T12:16:15;10.73;;;9.73;;
8640;SDS011;4358;42.100;25.222;2022-07-06T12:18:42;10.23;;;9.32;;
8640;SDS011;4358;42.100;25.222;2022-07-06T12:21:12;10.35;;;9.55;;
8640;SDS011;4358;42.100;25.222;2022-07-06T12:23:42;10.90;;;9.85;;
8640;SDS011;4358;42.100;25.222;2022-07-06T12:26:12;10.82;;;9.55;;
8640;SDS011;4358;42.100;25.222;2022-07-06T12:28:40;10.75;;;9.63;;
8640;SDS011;4358;42.100;25.222;2022-07-06T12:31:08;10.85;;;9.85;;
8640;SDS011;4358;42.100;25.222;2022-07-06T12:33:35;13.93;;;9.90;;
8640;SDS011;4358;42.100;25.222;2022-07-06T12:36:14;11.07;;;10.00;;
8640;SDS011;4358;42.100;25.222;2022-07-06T12:38:45;11.05;;;9.90;;
8640;SDS011;4358;42.100;25.222;2022-07-06T12:41:26;11.02;;;10.00;;
8640;SDS011;4358;42.100;25.222;2022-07-06T12:44:02;10.50;;;9.45;;
8640;SDS011;4358;42.100;25.222;2022-07-06T12:46:33;10.13;;;9.13;;
8640;SDS011;4358;42.100;25.222;2022-07-06T12:49:03;10.60;;;9.38;;
8640;SDS011;4358;42.100;25.222;2022-07-06T12:51:50;10.40;;;9.50;;
8640;SDS011;4358;42.100;25.222;2022-07-06T12:54:19;10.10;;;9.20;;
8640;SDS011;4358;42.100;25.222;2022-07-06T12:56:59;10.40;;;9.43;;
8640;SDS011;4358;42.100;25.222;2022-07-06T12:59:35;10.65;;;9.60;;
8640;SDS011;4358;42.100;25.222;2022-07-06T13:02:04;10.18;;;9.15;;
8640;SDS011;4358;42.100;25.222;2022-07-06T13:04:33;9.98;;;8.88;;
8640;SDS011;4358;42.100;25.222;2022-07-06T13:07:02;9.32;;;8.52;;
8640;SDS011;4358;42.100;25.222;2022-07-06T13:09:30;9.88;;;8.95;;
8640;SDS011;4358;42.100;25.222;2022-07-06T13:11:57;9.45;;;8.48;;
8640;SDS011;4358;42.100;25.222;2022-07-06T13:14:24;9.90;;;8.18;;
8640;SDS011;4358;42.100;25.222;2022-07-06T13:16:50;9.50;;;8.20;;
8640;SDS011;4358;42.100;25.222;2022-07-06T13:19:19;9.23;;;8.18;;
8640;SDS011;4358;42.100;25.222;2022-07-06T13:21:45;9.35;;;8.38;;
8640;SDS011;4358;42.100;25.222;2022-07-06T13:24:14;10.02;;;9.10;;
8640;SDS011;4358;42.100;25.222;2022-07-06T13:26:41;9.25;;;8.43;;
8640;SDS011;4358;42.100;25.222;2022-07-06T13:29:08;9.60;;;8.75;;
8640;SDS011;4358;42.100;25.222;2022-07-06T13:31:36;9.73;;;8.82;;
8640;SDS011;4358;42.100;25.222;2022-07-06T13:34:04;9.60;;;8.75;;
8640;SDS011;4358;42.100;25.222;2022-07-06T13:36:32;10.23;;;9.10;;
8640;SDS011;4358;42.100;25.222;2022-07-06T13:39:00;9.55;;;8.82;;
8640;SDS011;4358;42.100;25.222;2022-07-06T13:41:28;12.13;;;8.93;;
8640;SDS011;4358;42.100;25.222;2022-07-06T13:43:55;9.60;;;8.80;;
8640;SDS011;4358;42.100;25.222;2022-07-06T13:46:22;11.23;;;9.20;;
8640;SDS011;4358;42.100;25.222;2022-07-06T13:48:50;9.73;;;8.82;;
8640;SDS011;4358;42.100;25.222;2022-07-06T13:51:17;12.23;;;8.27;;
8640;SDS011;4358;42.100;25.222;2022-07-06T13:53:44;8.57;;;7.72;;
8640;SDS011;4358;42.100;25.222;2022-07-06T13:56:11;13.55;;;9.00;;
8640;SDS011;4358;42.100;25.222;2022-07-06T13:58:40;10.50;;;8.52;;
8640;SDS011;4358;42.100;25.222;2022-07-06T14:01:06;8.88;;;8.20;;
8640;SDS011;4358;42.100;25.222;2022-07-06T14:03:34;9.77;;;8.80;;
8640;SDS011;4358;42.100;25.222;2022-07-06T14:06:03;9.27;;;8.23;;
8640;SDS011;4358;42.100;25.222;2022-07-06T14:08:32;9.13;;;8.10;;
8640;SDS011;4358;42.100;25.222;2022-07-06T14:10:59;8.23;;;7.53;;
8640;SDS011;4358;42.100;25.222;2022-07-06T14:13:27;8.80;;;7.90;;
8640;SDS011;4358;42.100;25.222;2022-07-06T14:15:55;9.00;;;7.85;;
8640;SDS011;4358;42.100;25.222;2022-07-06T14:18:22;9.05;;;8.15;;
8640;SDS011;4358;42.100;25.222;2022-07-06T14:20:50;9.85;;;8.95;;
8640;SDS011;4358;42.100;25.222;2022-07-06T14:23:17;9.10;;;8.30;;
8640;SDS011;4358;42.100;25.222;2022-07-06T14:25:45;11.57;;;8.55;;
8640;SDS011;4358;42.100;25.222;2022-07-06T14:28:12;8.90;;;8.10;;
8640;SDS011;4358;42.100;25.222;2022-07-06T14:30:39;17.00;;;13.02;;
8640;SDS011;4358;42.100;25.222;2022-07-06T14:33:08;10.15;;;8.45;;
8640;SDS011;4358;42.100;25.222;2022-07-06T14:35:37;8.68;;;7.88;;
8640;SDS011;4358;42.100;25.222;2022-07-06T14:38:06;9.00;;;8.30;;
8640;SDS011;4358;42.100;25.222;2022-07-06T14:40:33;10.38;;;8.05;;
8640;SDS011;4358;42.100;25.222;2022-07-06T14:43:01;9.45;;;8.27;;
8640;SDS011;4358;42.100;25.222;2022-07-06T14:45:29;8.77;;;7.95;;
8640;SDS011;4358;42.100;25.222;2022-07-06T14:47:56;8.40;;;7.60;;
8640;SDS011;4358;42.100;25.222;2022-07-06T14:50:25;8.23;;;7.47;;
8640;SDS011;4358;42.100;25.222;2022-07-06T14:52:52;8.68;;;7.80;;
8640;SDS011;4358;42.100;25.222;2022-07-06T14:55:20;8.20;;;7.50;;
8640;SDS011;4358;42.100;25.222;2022-07-06T14:57:48;7.80;;;7.30;;
8640;SDS011;4358;42.100;25.222;2022-07-06T15:00:15;8.52;;;7.72;;
8640;SDS011;4358;42.100;25.222;2022-07-06T15:02:42;9.32;;;8.45;;
8640;SDS011;4358;42.100;25.222;2022-07-06T15:05:09;8.13;;;7.53;;